This is the latest recevied weather packets stored in our database for station/object K8DJB-1. If no packets are shown the sender has not sent any weather packets the latest 1 day(s).
| Time | Temp. | Humidity | Pressure | Rain* | Wind** | Luminosity | Snow |
|---|---|---|---|---|---|---|---|
| 1777980785 | 8.89° C | 72% | 1004.3 hPa | 0 mm | 2.68 m/s, 294° | - | - |
| 1777980462 | 8.89° C | 72% | 1004.2 hPa | 0 mm | 2.68 m/s, 289° | - | - |
| 1777979878 | 8.89° C | 72% | 1003.8 hPa | 0 mm | 2.68 m/s, 282° | - | - |
| 1777979578 | 8.89° C | 72% | 1003.8 hPa | 0 mm | 1.79 m/s, 282° | - | - |
| 1777979278 | 8.89° C | 72% | 1003.2 hPa | 0 mm | 1.79 m/s, 306° | - | - |
| 1777978978 | 8.89° C | 72% | 1003.8 hPa | 0 mm | 2.24 m/s, 275° | - | - |
| 1777978678 | 8.89° C | 72% | 1003.8 hPa | 0 mm | 3.13 m/s, 292° | - | - |
| 1777978378 | 8.89° C | 73% | 1003.6 hPa | 0 mm | 2.24 m/s, 282° | - | - |
| 1777978078 | 8.89° C | 72% | 1003.4 hPa | 0 mm | 2.24 m/s, 293° | - | - |
| 1777977778 | 8.89° C | 72% | 1003.5 hPa | 0 mm | 2.68 m/s, 278° | - | - |
| 1777977478 | 9.44° C | 71% | 1002.8 hPa | 0 mm | 1.79 m/s, 278° | - | - |
| 1777977178 | 9.44° C | 70% | 1003.1 hPa | 0 mm | 2.68 m/s, 266° | - | - |
| 1777976878 | 10° C | 69% | 1003.4 hPa | 0 mm | 1.79 m/s, 246° | - | - |
| 1777976578 | 10° C | 69% | 1002.7 hPa | 0 mm | 1.79 m/s, 277° | - | - |
| 1777976277 | 10° C | 68% | 1002.8 hPa | 0 mm | 3.58 m/s, 261° | - | - |
| 1777975978 | 10° C | 67% | 1002.7 hPa | 0 mm | 1.79 m/s, 292° | - | - |
| 1777975678 | 10° C | 68% | 1002.6 hPa | 0 mm | 1.79 m/s, 275° | - | - |
| 1777975378 | 10.56° C | 66% | 1002.6 hPa | 0 mm | 0.89 m/s, 271° | - | - |
| 1777975078 | 10.56° C | 66% | 1002.8 hPa | 0 mm | 1.34 m/s, 256° | - | - |
| 1777974778 | 10.56° C | 65% | 1002.7 hPa | 0 mm | 1.34 m/s, 249° | - | - |
| 1777974478 | 10.56° C | 65% | 1002.4 hPa | 0 mm | 1.79 m/s, 239° | - | - |
| 1777974178 | 10.56° C | 65% | 1002.2 hPa | 0 mm | 0.89 m/s, 271° | - | - |
| 1777973878 | 10.56° C | 66% | 1001.9 hPa | 0 mm | 1.34 m/s, 243° | - | - |
| 1777973578 | 10.56° C | 66% | 1001.9 hPa | 0 mm | 1.79 m/s, 216° | - | - |
| 1777973278 | 10.56° C | 66% | 1001.7 hPa | 0 mm | 1.34 m/s, 229° | - | - |
* Rain latest hour (hover to see other rain measurements)
** Current wind speed in m/s (hover to see current wind gust speed)